Airport View

Enter AWOS ICAO identifier for current METAR.

ex. KFNL

KGXY 120456Z AUTO 24007KT 9SM CLR M05/M07 A2996 RMK AO2 SLP184 T10501072 FZRANO

12 Dec 2019 05:34

Frequency: 135.175

Phone: 970-352-3511

Other Area AWOS: KFNL - KLMO - KEIK - KDEN

TAF AMD KDEN 120352Z 1204/1306 26012G18KT P6SM FEW100 SCT150 TEMPO 1204/1205 27018G32KT FM120500 21009KT P6SM FEW100 SCT220 FM122100 26009KT P6SM SCT080 BKN120 FM130100 21007KT P6SM SCT150